sensor_id;sensor_type;location;lat;lon;timestamp;pressure;altitude;pressure_sealevel;temperature;humidity
54850;BME280;47660;51.334;12.396;2022-12-15T00:01:19;99051.09;;;-3.20;100.00
54850;BME280;47660;51.334;12.396;2022-12-15T00:04:03;99052.84;;;-3.53;100.00
54850;BME280;47660;51.334;12.396;2022-12-15T00:06:47;99056.28;;;-3.51;100.00
54850;BME280;47660;51.334;12.396;2022-12-15T00:09:31;99050.19;;;-3.50;100.00
54850;BME280;47660;51.334;12.396;2022-12-15T00:12:15;99054.84;;;-3.62;100.00
54850;BME280;47660;51.334;12.396;2022-12-15T00:14:59;99054.41;;;-3.46;100.00
54850;BME280;47660;51.334;12.396;2022-12-15T00:17:43;99053.75;;;-3.54;100.00
54850;BME280;47660;51.334;12.396;2022-12-15T00:20:27;99050.53;;;-3.31;100.00
54850;BME280;47660;51.334;12.396;2022-12-15T00:23:11;99050.81;;;-3.40;100.00
54850;BME280;47660;51.334;12.396;2022-12-15T00:25:56;99048.22;;;-3.40;100.00
54850;BME280;47660;51.334;12.396;2022-12-15T00:28:40;99046.19;;;-3.31;100.00
54850;BME280;47660;51.334;12.396;2022-12-15T00:31:27;99051.47;;;-3.34;100.00
54850;BME280;47660;51.334;12.396;2022-12-15T00:34:11;99055.53;;;-3.56;100.00
54850;BME280;47660;51.334;12.396;2022-12-15T00:36:55;99054.03;;;-3.65;100.00
54850;BME280;47660;51.334;12.396;2022-12-15T00:39:39;99054.19;;;-3.71;100.00
54850;BME280;47660;51.334;12.396;2022-12-15T00:42:08;99055.63;;;-3.60;100.00
54850;BME280;47660;51.334;12.396;2022-12-15T00:44:34;99060.34;;;-3.74;100.00
54850;BME280;47660;51.334;12.396;2022-12-15T00:47:02;99069.69;;;-3.68;100.00
54850;BME280;47660;51.334;12.396;2022-12-15T00:49:30;99060.50;;;-3.47;100.00
54850;BME280;47660;51.334;12.396;2022-12-15T00:52:16;99071.91;;;-3.86;100.00
54850;BME280;47660;51.334;12.396;2022-12-15T00:55:01;99077.47;;;-4.03;100.00
54850;BME280;47660;51.334;12.396;2022-12-15T00:57:45;99075.69;;;-4.01;100.00
54850;BME280;47660;51.334;12.396;2022-12-15T01:00:32;99085.13;;;-4.33;100.00
54850;BME280;47660;51.334;12.396;2022-12-15T01:03:22;99088.38;;;-3.89;100.00
54850;BME280;47660;51.334;12.396;2022-12-15T01:06:12;99088.47;;;-3.92;100.00
54850;BME280;47660;51.334;12.396;2022-12-15T01:08:56;99089.00;;;-3.79;100.00
54850;BME280;47660;51.334;12.396;2022-12-15T01:11:41;99093.28;;;-3.76;100.00
54850;BME280;47660;51.334;12.396;2022-12-15T01:14:26;99091.97;;;-3.60;100.00
54850;BME280;47660;51.334;12.396;2022-12-15T01:17:10;99099.81;;;-3.96;100.00
54850;BME280;47660;51.334;12.396;2022-12-15T01:19:54;99105.25;;;-4.44;100.00
54850;BME280;47660;51.334;12.396;2022-12-15T01:22:38;99118.97;;;-4.39;100.00
54850;BME280;47660;51.334;12.396;2022-12-15T01:25:06;99111.41;;;-4.11;100.00
54850;BME280;47660;51.334;12.396;2022-12-15T01:27:32;99116.34;;;-4.00;100.00
54850;BME280;47660;51.334;12.396;2022-12-15T01:29:58;99116.22;;;-4.72;100.00
54850;BME280;47660;51.334;12.396;2022-12-15T01:32:23;99110.25;;;-3.97;100.00
54850;BME280;47660;51.334;12.396;2022-12-15T01:34:49;99122.38;;;-4.37;100.00
54850;BME280;47660;51.334;12.396;2022-12-15T01:37:15;99122.06;;;-4.63;100.00
54850;BME280;47660;51.334;12.396;2022-12-15T01:39:43;99125.53;;;-4.24;100.00
54850;BME280;47660;51.334;12.396;2022-12-15T01:42:27;99133.94;;;-4.11;100.00
54850;BME280;47660;51.334;12.396;2022-12-15T01:48:00;99139.72;;;-4.39;100.00
54850;BME280;47660;51.334;12.396;2022-12-15T01:50:27;99126.56;;;-3.94;100.00
54850;BME280;47660;51.334;12.396;2022-12-15T01:52:54;99126.03;;;-4.08;100.00
54850;BME280;47660;51.334;12.396;2022-12-15T01:55:21;99127.56;;;-4.37;100.00
54850;BME280;47660;51.334;12.396;2022-12-15T01:57:53;99125.09;;;-4.42;100.00
54850;BME280;47660;51.334;12.396;2022-12-15T02:00:20;99128.75;;;-4.13;100.00
54850;BME280;47660;51.334;12.396;2022-12-15T02:02:46;99131.00;;;-3.97;100.00
54850;BME280;47660;51.334;12.396;2022-12-15T02:05:12;99138.78;;;-3.97;100.00
54850;BME280;47660;51.334;12.396;2022-12-15T02:07:38;99134.00;;;-4.14;100.00
54850;BME280;47660;51.334;12.396;2022-12-15T02:10:05;99142.22;;;-3.97;100.00
54850;BME280;47660;51.334;12.396;2022-12-15T02:15:24;99147.50;;;-3.64;100.00
54850;BME280;47660;51.334;12.396;2022-12-15T02:29:10;99161.19;;;-4.33;100.00
54850;BME280;47660;51.334;12.396;2022-12-15T02:31:51;99160.50;;;-4.01;100.00
54850;BME280;47660;51.334;12.396;2022-12-15T02:39:41;99158.75;;;-4.01;100.00
54850;BME280;47660;51.334;12.396;2022-12-15T02:42:09;99156.63;;;-3.83;100.00
54850;BME280;47660;51.334;12.396;2022-12-15T02:45:22;99161.41;;;-3.66;100.00
54850;BME280;47660;51.334;12.396;2022-12-15T02:50:21;99164.78;;;-3.63;100.00
54850;BME280;47660;51.334;12.396;2022-12-15T03:00:54;99195.50;;;-3.82;100.00
54850;BME280;47660;51.334;12.396;2022-12-15T03:03:22;99201.38;;;-3.74;100.00
54850;BME280;47660;51.334;12.396;2022-12-15T03:05:50;99217.53;;;-3.61;100.00
54850;BME280;47660;51.334;12.396;2022-12-15T03:08:20;99217.94;;;-4.17;100.00
54850;BME280;47660;51.334;12.396;2022-12-15T03:10:47;99222.78;;;-4.01;100.00
54850;BME280;47660;51.334;12.396;2022-12-15T03:13:14;99219.56;;;-4.11;100.00
54850;BME280;47660;51.334;12.396;2022-12-15T03:15:39;99220.00;;;-3.92;100.00
54850;BME280;47660;51.334;12.396;2022-12-15T03:18:05;99226.47;;;-4.10;100.00
54850;BME280;47660;51.334;12.396;2022-12-15T03:20:30;99223.63;;;-4.01;100.00
54850;BME280;47660;51.334;12.396;2022-12-15T03:22:56;99228.38;;;-4.20;100.00
54850;BME280;47660;51.334;12.396;2022-12-15T03:25:21;99229.06;;;-4.10;100.00
54850;BME280;47660;51.334;12.396;2022-12-15T03:27:47;99220.97;;;-3.96;100.00
54850;BME280;47660;51.334;12.396;2022-12-15T03:30:15;99224.50;;;-4.00;100.00
54850;BME280;47660;51.334;12.396;2022-12-15T03:32:45;99226.59;;;-3.77;100.00
54850;BME280;47660;51.334;12.396;2022-12-15T03:35:10;99232.41;;;-4.07;100.00
54850;BME280;47660;51.334;12.396;2022-12-15T03:37:37;99222.59;;;-3.92;100.00
54850;BME280;47660;51.334;12.396;2022-12-15T03:40:03;99223.00;;;-4.11;100.00
54850;BME280;47660;51.334;12.396;2022-12-15T03:42:29;99232.72;;;-4.21;100.00
54850;BME280;47660;51.334;12.396;2022-12-15T03:45:17;99226.03;;;-3.92;100.00
54850;BME280;47660;51.334;12.396;2022-12-15T03:47:44;99222.69;;;-3.97;100.00
54850;BME280;47660;51.334;12.396;2022-12-15T03:50:11;99235.72;;;-3.98;100.00
54850;BME280;47660;51.334;12.396;2022-12-15T03:52:37;99234.50;;;-3.83;100.00
54850;BME280;47660;51.334;12.396;2022-12-15T03:55:03;99240.91;;;-3.98;100.00
54850;BME280;47660;51.334;12.396;2022-12-15T03:57:28;99237.69;;;-4.10;100.00
54850;BME280;47660;51.334;12.396;2022-12-15T03:59:54;99247.66;;;-3.91;100.00
54850;BME280;47660;51.334;12.396;2022-12-15T04:02:19;99254.06;;;-4.08;100.00
54850;BME280;47660;51.334;12.396;2022-12-15T04:04:47;99263.19;;;-3.88;100.00
54850;BME280;47660;51.334;12.396;2022-12-15T04:07:13;99265.34;;;-4.09;100.00
54850;BME280;47660;51.334;12.396;2022-12-15T04:09:39;99264.63;;;-4.15;100.00
54850;BME280;47660;51.334;12.396;2022-12-15T04:12:05;99257.78;;;-4.21;100.00
54850;BME280;47660;51.334;12.396;2022-12-15T04:14:30;99251.91;;;-3.89;100.00
54850;BME280;47660;51.334;12.396;2022-12-15T04:16:56;99268.88;;;-4.11;100.00
54850;BME280;47660;51.334;12.396;2022-12-15T04:19:21;99265.34;;;-4.09;100.00
54850;BME280;47660;51.334;12.396;2022-12-15T04:22:06;99271.38;;;-4.08;100.00
54850;BME280;47660;51.334;12.396;2022-12-15T04:24:31;99274.72;;;-4.03;100.00
54850;BME280;47660;51.334;12.396;2022-12-15T04:27:16;99272.16;;;-4.05;100.00
54850;BME280;47660;51.334;12.396;2022-12-15T04:29:59;99281.19;;;-4.23;100.00
54850;BME280;47660;51.334;12.396;2022-12-15T04:32:46;99271.75;;;-3.84;100.00
54850;BME280;47660;51.334;12.396;2022-12-15T04:35:31;99281.84;;;-4.11;100.00
54850;BME280;47660;51.334;12.396;2022-12-15T04:38:19;99286.44;;;-3.83;100.00
54850;BME280;47660;51.334;12.396;2022-12-15T04:41:03;99293.28;;;-3.81;100.00
54850;BME280;47660;51.334;12.396;2022-12-15T04:43:47;99290.00;;;-4.32;100.00
54850;BME280;47660;51.334;12.396;2022-12-15T04:46:32;99281.91;;;-4.16;100.00
54850;BME280;47660;51.334;12.396;2022-12-15T04:49:16;99288.28;;;-4.33;100.00
54850;BME280;47660;51.334;12.396;2022-12-15T04:51:59;99293.81;;;-4.50;100.00
54850;BME280;47660;51.334;12.396;2022-12-15T04:54:44;99294.00;;;-4.59;100.00
54850;BME280;47660;51.334;12.396;2022-12-15T04:57:30;99302.72;;;-4.65;100.00
54850;BME280;47660;51.334;12.396;2022-12-15T05:00:14;99307.84;;;-4.60;100.00
54850;BME280;47660;51.334;12.396;2022-12-15T05:03:05;99317.34;;;-4.59;100.00
54850;BME280;47660;51.334;12.396;2022-12-15T05:05:50;99320.25;;;-4.78;100.00
54850;BME280;47660;51.334;12.396;2022-12-15T05:08:34;99321.13;;;-4.79;100.00
54850;BME280;47660;51.334;12.396;2022-12-15T05:11:18;99325.38;;;-5.28;100.00
54850;BME280;47660;51.334;12.396;2022-12-15T05:14:02;99333.06;;;-5.23;100.00
54850;BME280;47660;51.334;12.396;2022-12-15T05:16:46;99324.13;;;-5.03;100.00
54850;BME280;47660;51.334;12.396;2022-12-15T05:19:30;99332.69;;;-4.98;100.00
54850;BME280;47660;51.334;12.396;2022-12-15T05:22:14;99334.47;;;-4.50;100.00
54850;BME280;47660;51.334;12.396;2022-12-15T05:24:58;99325.44;;;-4.30;100.00
54850;BME280;47660;51.334;12.396;2022-12-15T05:27:42;99332.34;;;-4.78;100.00
54850;BME280;47660;51.334;12.396;2022-12-15T05:30:26;99327.44;;;-4.45;100.00
54850;BME280;47660;51.334;12.396;2022-12-15T05:33:10;99337.50;;;-4.29;100.00
54850;BME280;47660;51.334;12.396;2022-12-15T05:35:35;99329.16;;;-4.44;100.00
54850;BME280;47660;51.334;12.396;2022-12-15T05:38:04;99328.53;;;-4.11;100.00
54850;BME280;47660;51.334;12.396;2022-12-15T05:40:30;99338.56;;;-4.38;100.00
54850;BME280;47660;51.334;12.396;2022-12-15T05:42:58;99341.19;;;-4.41;100.00
54850;BME280;47660;51.334;12.396;2022-12-15T05:45:24;99360.59;;;-4.61;100.00
54850;BME280;47660;51.334;12.396;2022-12-15T05:47:51;99358.69;;;-4.53;100.00
54850;BME280;47660;51.334;12.396;2022-12-15T05:50:16;99359.09;;;-4.76;100.00
54850;BME280;47660;51.334;12.396;2022-12-15T05:52:42;99358.47;;;-4.40;100.00
54850;BME280;47660;51.334;12.396;2022-12-15T05:55:08;99362.09;;;-4.49;100.00
54850;BME280;47660;51.334;12.396;2022-12-15T05:57:38;99363.53;;;-4.83;100.00
54850;BME280;47660;51.334;12.396;2022-12-15T06:00:04;99366.88;;;-4.27;100.00
54850;BME280;47660;51.334;12.396;2022-12-15T06:02:30;99375.25;;;-4.11;100.00
54850;BME280;47660;51.334;12.396;2022-12-15T06:04:58;99378.13;;;-4.27;100.00
54850;BME280;47660;51.334;12.396;2022-12-15T06:07:26;99379.00;;;-4.28;100.00
54850;BME280;47660;51.334;12.396;2022-12-15T06:09:52;99379.13;;;-4.86;100.00
54850;BME280;47660;51.334;12.396;2022-12-15T06:12:17;99374.84;;;-4.37;100.00
54850;BME280;47660;51.334;12.396;2022-12-15T06:14:43;99381.66;;;-4.31;100.00
54850;BME280;47660;51.334;12.396;2022-12-15T06:17:08;99383.09;;;-4.63;100.00
54850;BME280;47660;51.334;12.396;2022-12-15T06:19:37;99386.03;;;-4.85;100.00
54850;BME280;47660;51.334;12.396;2022-12-15T06:22:02;99387.66;;;-4.79;100.00
54850;BME280;47660;51.334;12.396;2022-12-15T06:24:28;99407.09;;;-4.52;100.00
54850;BME280;47660;51.334;12.396;2022-12-15T06:26:56;99413.66;;;-4.32;100.00
54850;BME280;47660;51.334;12.396;2022-12-15T06:29:21;99417.56;;;-4.08;100.00
54850;BME280;47660;51.334;12.396;2022-12-15T06:31:46;99414.66;;;-4.38;100.00
54850;BME280;47660;51.334;12.396;2022-12-15T06:34:14;99423.13;;;-4.29;100.00
54850;BME280;47660;51.334;12.396;2022-12-15T06:36:40;99423.03;;;-4.23;100.00
54850;BME280;47660;51.334;12.396;2022-12-15T06:39:07;99428.16;;;-3.73;100.00
54850;BME280;47660;51.334;12.396;2022-12-15T06:41:36;99435.13;;;-4.22;100.00
54850;BME280;47660;51.334;12.396;2022-12-15T06:44:02;99438.88;;;-3.92;100.00
54850;BME280;47660;51.334;12.396;2022-12-15T06:46:29;99441.75;;;-4.06;100.00
54850;BME280;47660;51.334;12.396;2022-12-15T06:48:56;99440.72;;;-3.97;100.00
54850;BME280;47660;51.334;12.396;2022-12-15T06:51:25;99441.84;;;-4.12;100.00
54850;BME280;47660;51.334;12.396;2022-12-15T06:53:50;99434.81;;;-4.05;100.00
54850;BME280;47660;51.334;12.396;2022-12-15T06:56:34;99433.38;;;-4.22;100.00
54850;BME280;47660;51.334;12.396;2022-12-15T06:59:04;99443.53;;;-4.09;100.00
54850;BME280;47660;51.334;12.396;2022-12-15T07:01:31;99439.34;;;-4.16;100.00
54850;BME280;47660;51.334;12.396;2022-12-15T07:03:58;99455.41;;;-3.96;100.00
54850;BME280;47660;51.334;12.396;2022-12-15T07:06:25;99446.28;;;-4.17;100.00
54850;BME280;47660;51.334;12.396;2022-12-15T07:08:52;99448.38;;;-3.91;100.00
54850;BME280;47660;51.334;12.396;2022-12-15T07:11:19;99448.31;;;-3.86;100.00
54850;BME280;47660;51.334;12.396;2022-12-15T07:13:52;99454.78;;;-4.09;100.00
54850;BME280;47660;51.334;12.396;2022-12-15T07:16:18;99454.34;;;-3.85;100.00
54850;BME280;47660;51.334;12.396;2022-12-15T07:18:44;99448.84;;;-4.15;100.00
54850;BME280;47660;51.334;12.396;2022-12-15T07:21:10;99444.84;;;-4.34;100.00
54850;BME280;47660;51.334;12.396;2022-12-15T07:23:36;99452.38;;;-4.20;100.00
54850;BME280;47660;51.334;12.396;2022-12-15T07:26:06;99455.69;;;-4.65;100.00
54850;BME280;47660;51.334;12.396;2022-12-15T07:28:34;99457.47;;;-4.13;100.00
54850;BME280;47660;51.334;12.396;2022-12-15T07:31:07;99477.59;;;-4.28;100.00
54850;BME280;47660;51.334;12.396;2022-12-15T07:33:36;99477.44;;;-4.19;100.00
54850;BME280;47660;51.334;12.396;2022-12-15T07:36:05;99484.06;;;-4.02;100.00
54850;BME280;47660;51.334;12.396;2022-12-15T07:38:32;99479.84;;;-4.09;100.00
54850;BME280;47660;51.334;12.396;2022-12-15T07:41:02;99478.34;;;-3.73;100.00
54850;BME280;47660;51.334;12.396;2022-12-15T07:43:28;99484.72;;;-3.91;100.00
54850;BME280;47660;51.334;12.396;2022-12-15T07:45:55;99486.59;;;-3.97;100.00
54850;BME280;47660;51.334;12.396;2022-12-15T07:48:20;99497.56;;;-3.81;100.00
54850;BME280;47660;51.334;12.396;2022-12-15T07:50:45;99496.66;;;-3.80;100.00
54850;BME280;47660;51.334;12.396;2022-12-15T07:53:11;99502.47;;;-3.66;100.00
54850;BME280;47660;51.334;12.396;2022-12-15T07:55:36;99498.22;;;-4.20;100.00
54850;BME280;47660;51.334;12.396;2022-12-15T07:58:02;99501.88;;;-4.32;100.00
54850;BME280;47660;51.334;12.396;2022-12-15T08:00:27;99504.03;;;-4.06;100.00
54850;BME280;47660;51.334;12.396;2022-12-15T08:02:53;99499.31;;;-3.83;100.00
54850;BME280;47660;51.334;12.396;2022-12-15T08:05:22;99497.59;;;-3.84;100.00
54850;BME280;47660;51.334;12.396;2022-12-15T08:07:48;99510.84;;;-3.51;100.00
54850;BME280;47660;51.334;12.396;2022-12-15T08:10:13;99514.16;;;-4.42;100.00
54850;BME280;47660;51.334;12.396;2022-12-15T08:12:39;99530.94;;;-4.68;100.00
54850;BME280;47660;51.334;12.396;2022-12-15T08:15:04;99526.41;;;-4.00;100.00
54850;BME280;47660;51.334;12.396;2022-12-15T08:17:30;99525.50;;;-3.96;100.00
54850;BME280;47660;51.334;12.396;2022-12-15T08:19:55;99513.53;;;-3.56;100.00
54850;BME280;47660;51.334;12.396;2022-12-15T08:22:21;99520.22;;;-3.91;100.00
54850;BME280;47660;51.334;12.396;2022-12-15T08:24:48;99520.19;;;-3.88;100.00
54850;BME280;47660;51.334;12.396;2022-12-15T08:27:14;99519.50;;;-3.99;100.00
54850;BME280;47660;51.334;12.396;2022-12-15T08:29:39;99523.19;;;-3.64;100.00
54850;BME280;47660;51.334;12.396;2022-12-15T08:32:07;99524.53;;;-3.43;100.00
54850;BME280;47660;51.334;12.396;2022-12-15T08:34:33;99528.72;;;-3.83;100.00
54850;BME280;47660;51.334;12.396;2022-12-15T08:37:01;99519.56;;;-3.55;100.00
54850;BME280;47660;51.334;12.396;2022-12-15T08:39:26;99529.09;;;-3.12;100.00
54850;BME280;47660;51.334;12.396;2022-12-15T08:41:51;99525.13;;;-3.29;100.00
54850;BME280;47660;51.334;12.396;2022-12-15T08:44:17;99526.97;;;-3.35;100.00
54850;BME280;47660;51.334;12.396;2022-12-15T08:46:42;99518.50;;;-3.01;100.00
54850;BME280;47660;51.334;12.396;2022-12-15T08:49:10;99523.69;;;-3.44;100.00
54850;BME280;47660;51.334;12.396;2022-12-15T08:51:36;99531.81;;;-3.17;100.00
54850;BME280;47660;51.334;12.396;2022-12-15T08:54:01;99529.38;;;-3.24;100.00
54850;BME280;47660;51.334;12.396;2022-12-15T08:56:28;99527.25;;;-3.05;100.00
54850;BME280;47660;51.334;12.396;2022-12-15T08:58:56;99536.22;;;-2.79;100.00
54850;BME280;47660;51.334;12.396;2022-12-15T09:01:23;99531.91;;;-2.79;100.00
54850;BME280;47660;51.334;12.396;2022-12-15T09:03:50;99538.13;;;-2.86;100.00
54850;BME280;47660;51.334;12.396;2022-12-15T09:06:23;99537.66;;;-3.05;100.00
54850;BME280;47660;51.334;12.396;2022-12-15T09:08:56;99534.56;;;-3.24;100.00
54850;BME280;47660;51.334;12.396;2022-12-15T09:11:23;99544.31;;;-2.92;100.00
54850;BME280;47660;51.334;12.396;2022-12-15T09:13:49;99544.03;;;-2.79;100.00
54850;BME280;47660;51.334;12.396;2022-12-15T09:16:16;99548.84;;;-2.62;100.00
54850;BME280;47660;51.334;12.396;2022-12-15T09:18:44;99547.00;;;-2.57;100.00
54850;BME280;47660;51.334;12.396;2022-12-15T09:21:11;99553.00;;;-2.94;100.00
54850;BME280;47660;51.334;12.396;2022-12-15T09:23:37;99543.81;;;-3.11;100.00
54850;BME280;47660;51.334;12.396;2022-12-15T09:26:06;99539.28;;;-2.60;100.00
54850;BME280;47660;51.334;12.396;2022-12-15T09:28:32;99538.44;;;-2.62;100.00
54850;BME280;47660;51.334;12.396;2022-12-15T09:31:15;99547.06;;;-2.59;100.00
54850;BME280;47660;51.334;12.396;2022-12-15T09:33:42;99543.13;;;-2.39;100.00
54850;BME280;47660;51.334;12.396;2022-12-15T09:36:12;99550.28;;;-2.47;100.00
54850;BME280;47660;51.334;12.396;2022-12-15T09:38:38;99551.72;;;-2.35;100.00
54850;BME280;47660;51.334;12.396;2022-12-15T09:48:48;99555.19;;;-2.35;100.00
54850;BME280;47660;51.334;12.396;2022-12-15T09:51:16;99558.38;;;-2.22;100.00
54850;BME280;47660;51.334;12.396;2022-12-15T09:53:43;99562.41;;;-2.46;100.00
54850;BME280;47660;51.334;12.396;2022-12-15T09:56:20;99563.72;;;-2.28;100.00
54850;BME280;47660;51.334;12.396;2022-12-15T09:59:02;99569.00;;;-2.31;100.00
54850;BME280;47660;51.334;12.396;2022-12-15T10:01:37;99574.16;;;-1.59;100.00
54850;BME280;47660;51.334;12.396;2022-12-15T10:07:05;99566.59;;;-2.03;100.00
54850;BME280;47660;51.334;12.396;2022-12-15T10:09:32;99579.22;;;-2.24;100.00
54850;BME280;47660;51.334;12.396;2022-12-15T10:12:09;99579.47;;;-1.98;100.00
54850;BME280;47660;51.334;12.396;2022-12-15T10:14:43;99590.88;;;-2.02;100.00
54850;BME280;47660;51.334;12.396;2022-12-15T10:17:42;99585.44;;;-1.58;100.00
54850;BME280;47660;51.334;12.396;2022-12-15T10:20:19;99600.78;;;-2.17;100.00
54850;BME280;47660;51.334;12.396;2022-12-15T10:22:45;99593.25;;;-2.29;100.00
54850;BME280;47660;51.334;12.396;2022-12-15T10:28:16;99603.38;;;-2.17;100.00
54850;BME280;47660;51.334;12.396;2022-12-15T10:33:25;99596.53;;;-1.85;100.00
54850;BME280;47660;51.334;12.396;2022-12-15T10:35:53;99596.28;;;-1.41;100.00
54850;BME280;47660;51.334;12.396;2022-12-15T10:41:05;99592.72;;;-1.71;100.00
54850;BME280;47660;51.334;12.396;2022-12-15T10:43:42;99588.91;;;-1.25;100.00
54850;BME280;47660;51.334;12.396;2022-12-15T10:46:24;99579.56;;;-1.33;100.00
54850;BME280;47660;51.334;12.396;2022-12-15T10:51:28;99582.50;;;-1.13;100.00
54850;BME280;47660;51.334;12.396;2022-12-15T10:56:26;99593.69;;;-1.09;100.00
54850;BME280;47660;51.334;12.396;2022-12-15T11:01:51;99592.72;;;-1.05;100.00
54850;BME280;47660;51.334;12.396;2022-12-15T11:04:28;99587.78;;;-0.84;100.00
54850;BME280;47660;51.334;12.396;2022-12-15T11:07:01;99582.91;;;-0.67;100.00
54850;BME280;47660;51.334;12.396;2022-12-15T11:09:35;99578.41;;;-0.62;100.00
54850;BME280;47660;51.334;12.396;2022-12-15T11:12:20;99582.09;;;-0.39;100.00
54850;BME280;47660;51.334;12.396;2022-12-15T11:18:00;99595.06;;;-0.66;100.00
54850;BME280;47660;51.334;12.396;2022-12-15T11:20:34;99589.25;;;-0.17;100.00
54850;BME280;47660;51.334;12.396;2022-12-15T11:23:08;99586.28;;;-0.33;100.00
54850;BME280;47660;51.334;12.396;2022-12-15T11:25:42;99584.63;;;-0.66;100.00
54850;BME280;47660;51.334;12.396;2022-12-15T11:28:18;99587.22;;;-0.07;100.00
54850;BME280;47660;51.334;12.396;2022-12-15T11:30:50;99585.44;;;-0.34;100.00
54850;BME280;47660;51.334;12.396;2022-12-15T11:33:19;99586.25;;;-0.62;100.00
54850;BME280;47660;51.334;12.396;2022-12-15T11:38:17;99594.00;;;-0.88;100.00
54850;BME280;47660;51.334;12.396;2022-12-15T11:40:45;99585.84;;;-0.78;100.00
54850;BME280;47660;51.334;12.396;2022-12-15T11:51:36;99584.75;;;-0.12;100.00
54850;BME280;47660;51.334;12.396;2022-12-15T11:57:02;99574.72;;;0.03;100.00
54850;BME280;47660;51.334;12.396;2022-12-15T12:16:43;99567.88;;;-0.57;100.00
54850;BME280;47660;51.334;12.396;2022-12-15T12:19:37;99565.09;;;-0.52;100.00
54850;BME280;47660;51.334;12.396;2022-12-15T12:22:26;99557.53;;;-0.05;100.00
54850;BME280;47660;51.334;12.396;2022-12-15T12:25:04;99567.66;;;-0.22;100.00
54850;BME280;47660;51.334;12.396;2022-12-15T12:33:09;99564.53;;;-0.05;100.00
54850;BME280;47660;51.334;12.396;2022-12-15T12:35:46;99561.91;;;-0.05;100.00
54850;BME280;47660;51.334;12.396;2022-12-15T12:38:23;99561.94;;;0.20;100.00
54850;BME280;47660;51.334;12.396;2022-12-15T12:46:54;99560.47;;;0.11;100.00
54850;BME280;47660;51.334;12.396;2022-12-15T12:49:37;99554.91;;;-0.05;100.00
54850;BME280;47660;51.334;12.396;2022-12-15T12:52:05;99558.53;;;-0.09;100.00
54850;BME280;47660;51.334;12.396;2022-12-15T12:54:42;99562.97;;;0.16;100.00
54850;BME280;47660;51.334;12.396;2022-12-15T12:59:41;99555.03;;;-0.36;100.00
54850;BME280;47660;51.334;12.396;2022-12-15T13:04:41;99559.22;;;0.49;100.00
54850;BME280;47660;51.334;12.396;2022-12-15T13:07:36;99557.06;;;0.36;100.00
54850;BME280;47660;51.334;12.396;2022-12-15T13:10:20;99549.25;;;0.35;100.00
54850;BME280;47660;51.334;12.396;2022-12-15T13:12:54;99552.03;;;0.03;100.00
54850;BME280;47660;51.334;12.396;2022-12-15T13:18:20;99557.13;;;0.08;100.00
54850;BME280;47660;51.334;12.396;2022-12-15T13:20:48;99550.53;;;0.48;100.00
54850;BME280;47660;51.334;12.396;2022-12-15T13:36:42;99544.47;;;0.22;100.00
54850;BME280;47660;51.334;12.396;2022-12-15T13:46:50;99539.91;;;0.27;100.00
54850;BME280;47660;51.334;12.396;2022-12-15T13:49:40;99547.31;;;0.41;100.00
54850;BME280;47660;51.334;12.396;2022-12-15T13:52:46;99549.53;;;0.27;100.00
54850;BME280;47660;51.334;12.396;2022-12-15T13:55:21;99549.81;;;0.44;100.00
54850;BME280;47660;51.334;12.396;2022-12-15T13:58:13;99539.09;;;0.51;100.00
54850;BME280;47660;51.334;12.396;2022-12-15T14:00:53;99545.66;;;-0.15;100.00
54850;BME280;47660;51.334;12.396;2022-12-15T14:03:19;99540.13;;;-0.06;100.00
54850;BME280;47660;51.334;12.396;2022-12-15T14:05:50;99532.53;;;0.40;100.00
54850;BME280;47660;51.334;12.396;2022-12-15T14:08:17;99534.53;;;0.32;100.00
54850;BME280;47660;51.334;12.396;2022-12-15T14:10:56;99542.59;;;0.26;100.00
54850;BME280;47660;51.334;12.396;2022-12-15T14:13:29;99541.22;;;-0.11;100.00
54850;BME280;47660;51.334;12.396;2022-12-15T14:18:42;99553.19;;;-0.33;100.00
54850;BME280;47660;51.334;12.396;2022-12-15T14:21:26;99560.69;;;-0.50;100.00
54850;BME280;47660;51.334;12.396;2022-12-15T14:24:01;99560.13;;;-0.05;100.00
54850;BME280;47660;51.334;12.396;2022-12-15T14:26:27;99555.25;;;0.11;100.00
54850;BME280;47660;51.334;12.396;2022-12-15T14:29:03;99568.22;;;-0.12;100.00
54850;BME280;47660;51.334;12.396;2022-12-15T14:31:29;99572.22;;;-0.29;100.00
54850;BME280;47660;51.334;12.396;2022-12-15T14:36:30;99574.28;;;-0.69;100.00
54850;BME280;47660;51.334;12.396;2022-12-15T14:39:01;99576.50;;;-0.26;100.00
54850;BME280;47660;51.334;12.396;2022-12-15T14:41:33;99565.66;;;-0.14;100.00
54850;BME280;47660;51.334;12.396;2022-12-15T14:44:03;99563.09;;;-0.16;100.00
54850;BME280;47660;51.334;12.396;2022-12-15T14:46:30;99563.94;;;-0.72;100.00
54850;BME280;47660;51.334;12.396;2022-12-15T14:49:07;99571.38;;;-0.58;100.00
54850;BME280;47660;51.334;12.396;2022-12-15T14:51:41;99572.75;;;-0.46;100.00
54850;BME280;47660;51.334;12.396;2022-12-15T14:54:27;99571.19;;;-0.52;100.00
54850;BME280;47660;51.334;12.396;2022-12-15T14:57:24;99574.47;;;-0.45;100.00
54850;BME280;47660;51.334;12.396;2022-12-15T14:59:52;99572.97;;;-0.84;100.00
54850;BME280;47660;51.334;12.396;2022-12-15T15:02:25;99561.56;;;-0.50;100.00
54850;BME280;47660;51.334;12.396;2022-12-15T15:04:55;99554.66;;;-0.52;100.00
54850;BME280;47660;51.334;12.396;2022-12-15T15:07:21;99552.94;;;-0.53;100.00
54850;BME280;47660;51.334;12.396;2022-12-15T15:09:48;99555.03;;;-0.65;100.00
54850;BME280;47660;51.334;12.396;2022-12-15T15:12:25;99551.25;;;-0.54;100.00
54850;BME280;47660;51.334;12.396;2022-12-15T15:14:57;99544.56;;;-0.63;100.00
54850;BME280;47660;51.334;12.396;2022-12-15T15:20:21;99540.56;;;-0.47;100.00
54850;BME280;47660;51.334;12.396;2022-12-15T15:25:36;99546.38;;;-0.38;100.00
54850;BME280;47660;51.334;12.396;2022-12-15T15:28:12;99540.94;;;-0.31;100.00
54850;BME280;47660;51.334;12.396;2022-12-15T15:33:17;99554.03;;;-0.61;100.00
54850;BME280;47660;51.334;12.396;2022-12-15T15:35:45;99554.00;;;-0.89;100.00